Pagina principale
METAR-TAF:

METAR-TAF

Aeroporti :

Aeroporto delle Midlands Orientali

Midlands Orientali, Inghilterra

latitudine: 52-50N, longitudine: 001-20W, altezza: 94 m

Osservazione

Il bollettino è stato emesso 17 minuti fa, alle 22:20 UTC
Vento 4 kt da sud-ovest
Temperature 19°C
Umidità 78%
Pressione 1021 hPa
Visibilità 10 km o più
nessuna nube inferiore a 1500 m e nessun cumulonembo

METAR: EGNX 222220Z 23004KT CAVOK 19/15 Q1021

Ora: 23:37 (22:37 UTC)

Previsione

Il bollettino è stato emesso 14 minuti fa, alle 22:23 UTC
Previsione valida dal 22 alle 22 UTC al 23 alle 18 UTC
Vento 4 kt da sud/sud-ovest
Visibilità 10 km o più
Poco nuvoloso ad un'altezza di 3500 ft
Probabilità 40%
dal 23 alle 02 UTC al 23 alle 07 UTC
Visibilità: 8000 m
Evoluzione graduale
dal 23 alle 12 UTC al 23 alle 15 UTC
Vento 10 kt da sud/sud-est

TAF: EGNX 222223Z 2222/2318 21004KT 9999 FEW035 PROB40 2302/2307 8000 BECMG 2312/2315 15010KT

Osservazioni e previsioni meteorologiche di più di 4000 aeroporti (messaggi METAR e TAF).

Le stazioni disponibili sono rappresentate dai dischi gialli e rossi sulla carta.

Puntare il mouse per vedere il nome della stazione.

Clicca sopra per visualizzare le osservazioni e previsioni meteorologiche.

Per cambiare la mappa : fare clic sui pulsanti verdi con una croce nera per ingrandire, il pulsante verde con un trattino per diminuire, o sulla freccia verde per le mappe adiacenti.


METAR-TAF: